Time;durP1;ratioP1;P1;durP2;ratioP2;P2;SDS_P1;SDS_P2;PMS_P1;PMS_P2;Temp;Humidity;BMP_temperature;BMP_pressure;BME280_temperature;BME280_humidity;BME280_pressure;Samples;Min_cycle;Max_cycle;Signal;HPM_P1;HPM_P2
2022/03/24 00:00:50;;;;;;;;;40.75;37.00;;;;;10.55;73.71;102927.78;4988232;28;11245;-72
2022/03/24 00:03:17;;;;;;;;;47.00;38.25;;;;;10.47;73.90;102920.34;4996779;28;11178;-71
2022/03/24 00:05:47;;;;;;;;;34.75;31.50;;;;;10.46;74.12;102934.88;4985301;28;11239;-71
2022/03/24 00:08:14;;;;;;;;;46.75;37.75;;;;;10.41;74.25;102922.75;4959294;28;11065;-71
2022/03/24 00:10:40;;;;;;;;;48.25;40.75;;;;;10.42;74.38;102925.31;4978668;28;11116;-71
2022/03/24 00:13:07;;;;;;;;;38.75;31.00;;;;;10.40;74.19;102921.00;5005807;28;11724;-71
2022/03/24 00:15:33;;;;;;;;;50.75;38.00;;;;;10.36;74.33;102925.00;5008433;28;11116;-73
2022/03/24 00:18:01;;;;;;;;;40.50;36.50;;;;;10.25;74.31;102915.13;4994528;28;11570;-70
2022/03/24 00:20:28;;;;;;;;;43.50;39.25;;;;;10.23;74.42;102918.97;4990341;28;11758;-71
2022/03/24 00:22:55;;;;;;;;;44.00;37.50;;;;;10.18;74.83;102908.50;5006187;28;11253;-73
2022/03/24 00:25:21;;;;;;;;;42.75;39.00;;;;;10.18;74.54;102919.34;5009989;28;11198;-71
2022/03/24 00:27:48;;;;;;;;;48.50;40.75;;;;;10.17;74.90;102912.22;4994985;28;11576;-71
2022/03/24 00:30:15;;;;;;;;;48.50;42.75;;;;;10.15;74.77;102914.16;4974735;28;11569;-71
2022/03/24 00:32:41;;;;;;;;;44.50;39.50;;;;;10.14;74.29;102912.47;5005294;28;11579;-71
2022/03/24 00:35:08;;;;;;;;;49.00;40.25;;;;;10.10;74.23;102911.00;4997067;28;11629;-71
2022/03/24 00:37:35;;;;;;;;;46.00;41.50;;;;;10.10;74.25;102914.59;5013047;28;11635;-71
2022/03/24 00:40:06;;;;;;;;;46.25;39.00;;;;;10.03;73.75;102910.72;4996177;28;11563;-71
2022/03/24 00:42:35;;;;;;;;;39.00;30.00;;;;;10.00;73.97;102910.97;4984376;28;11370;-71
2022/03/24 00:45:06;;;;;;;;;42.50;36.75;;;;;9.92;73.89;102912.66;4993035;28;11104;-72
2022/03/24 00:47:35;;;;;;;;;38.75;35.00;;;;;9.92;74.20;102909.94;4994040;28;11367;-71
2022/03/24 00:50:07;;;;;;;;;46.00;30.25;;;;;9.90;74.29;102914.59;4996710;28;11674;-71
2022/03/24 00:52:41;;;;;;;;;34.25;31.00;;;;;9.85;74.14;102910.47;5004393;28;11662;-72
2022/03/24 00:55:13;;;;;;;;;48.00;42.75;;;;;9.82;74.23;102913.44;4993891;28;11204;-71
2022/03/24 00:57:41;;;;;;;;;42.00;37.75;;;;;9.83;74.18;102914.28;4957870;28;11708;-71
2022/03/24 01:00:09;;;;;;;;;48.50;35.00;;;;;9.76;73.93;102905.00;4980913;28;11266;-71
2022/03/24 01:02:38;;;;;;;;;33.75;25.75;;;;;9.69;74.18;102901.97;4976542;28;11268;-71
2022/03/24 01:05:07;;;;;;;;;43.75;37.75;;;;;9.70;74.15;102902.84;4995399;28;11170;-71
2022/03/24 01:07:37;;;;;;;;;38.50;34.00;;;;;9.71;74.53;102904.56;4991615;28;11317;-71
2022/03/24 01:10:05;;;;;;;;;38.00;32.75;;;;;9.70;74.19;102909.09;4985191;28;12153;-71
2022/03/24 01:12:31;;;;;;;;;41.00;33.00;;;;;9.64;74.21;102898.78;5010590;28;11586;-70
2022/03/24 01:14:58;;;;;;;;;35.25;32.00;;;;;9.61;73.94;102904.47;4986579;28;11365;-72
2022/03/24 01:17:26;;;;;;;;;44.75;37.25;;;;;9.57;74.06;102895.75;4956158;28;11115;-72
2022/03/24 01:19:52;;;;;;;;;38.75;35.00;;;;;9.53;73.80;102894.31;4977558;28;12212;-72
2022/03/24 01:22:19;;;;;;;;;46.50;35.50;;;;;9.56;73.83;102896.75;4989660;28;11583;-72
2022/03/24 01:24:46;;;;;;;;;29.75;25.75;;;;;9.51;73.51;102898.16;5010631;28;11701;-72
2022/03/24 01:27:15;;;;;;;;;35.25;30.00;;;;;9.51;73.03;102888.19;4994422;28;11095;-70
2022/03/24 01:29:42;;;;;;;;;29.75;26.75;;;;;9.56;73.26;102883.25;4981181;28;10947;-70
2022/03/24 01:32:08;;;;;;;;;40.00;33.50;;;;;9.47;72.91;102886.75;4986210;28;11873;-71
2022/03/24 01:34:35;;;;;;;;;41.00;33.00;;;;;9.38;73.35;102884.81;4968721;28;11608;-70
2022/03/24 01:37:03;;;;;;;;;37.75;32.50;;;;;9.38;73.29;102881.25;5003617;28;11566;-71
2022/03/24 01:39:29;;;;;;;;;34.50;26.50;;;;;9.37;73.20;102879.53;4965395;28;11242;-71
2022/03/24 01:41:56;;;;;;;;;34.00;26.00;;;;;9.35;73.47;102882.38;4985350;28;11259;-71
2022/03/24 01:44:23;;;;;;;;;32.25;29.25;;;;;9.35;72.71;102879.66;5010591;28;11178;-70
2022/03/24 01:46:56;;;;;;;;;35.25;31.25;;;;;9.29;72.73;102882.91;5011678;28;11666;-71
2022/03/24 01:49:24;;;;;;;;;39.75;33.75;;;;;9.30;72.61;102883.75;4992462;28;11602;-71
2022/03/24 01:51:51;;;;;;;;;25.50;24.00;;;;;9.27;73.14;102879.47;4981797;28;11621;-71
2022/03/24 01:54:19;;;;;;;;;35.25;33.25;;;;;9.22;73.07;102873.59;4993922;28;11292;-71
2022/03/24 01:56:45;;;;;;;;;36.75;28.00;;;;;9.19;73.20;102871.16;4979601;28;11601;-71
2022/03/24 01:59:14;;;;;;;;;34.75;30.50;;;;;9.18;72.80;102878.41;4977985;28;11653;-71
2022/03/24 02:01:41;;;;;;;;;28.50;25.00;;;;;9.20;73.17;102873.75;5000072;28;11400;-73
2022/03/24 02:04:08;;;;;;;;;36.50;29.00;;;;;9.16;73.20;102877.66;5002090;28;11673;-72
2022/03/24 02:06:36;;;;;;;;;23.00;21.50;;;;;9.15;72.51;102869.69;4996605;28;11587;-70
2022/03/24 02:09:04;;;;;;;;;24.75;22.25;;;;;9.10;72.69;102869.22;4973698;28;11082;-70
2022/03/24 02:11:31;;;;;;;;;29.75;27.00;;;;;9.08;72.89;102871.19;4980008;28;11073;-71
2022/03/24 02:13:58;;;;;;;;;27.00;25.50;;;;;9.04;73.01;102867.91;4992418;28;11816;-71
2022/03/24 02:16:27;;;;;;;;;37.50;34.25;;;;;9.11;73.28;102870.94;4980783;28;11179;-71
2022/03/24 02:18:59;;;;;;;;;32.00;25.25;;;;;9.11;72.90;102871.78;4974671;28;11546;-72
2022/03/24 02:21:26;;;;;;;;;24.75;24.00;;;;;9.04;73.09;102869.75;4964067;28;11183;-70
2022/03/24 02:23:54;;;;;;;;;26.00;22.75;;;;;9.04;73.46;102865.19;4998366;28;11089;-71
2022/03/24 02:26:20;;;;;;;;;32.00;27.25;;;;;9.01;73.51;102867.31;5006313;28;11011;-71
2022/03/24 02:28:46;;;;;;;;;34.75;32.50;;;;;9.00;73.58;102863.75;4994684;28;11296;-71
2022/03/24 02:31:13;;;;;;;;;36.00;29.25;;;;;8.96;73.81;102865.00;4985493;28;11266;-71
2022/03/24 02:33:40;;;;;;;;;34.00;28.50;;;;;8.89;74.09;102859.22;5003084;28;11617;-70
2022/03/24 02:36:07;;;;;;;;;34.00;30.00;;;;;8.85;74.29;102857.78;4995586;28;11467;-71
2022/03/24 02:38:33;;;;;;;;;34.25;29.75;;;;;8.89;74.33;102859.22;4994560;28;11677;-71
2022/03/24 02:41:00;;;;;;;;;30.50;23.25;;;;;8.83;73.92;102858.91;4990054;28;12301;-69
2022/03/24 02:43:26;;;;;;;;;25.25;22.75;;;;;8.82;74.01;102854.47;5005655;28;11002;-71
2022/03/24 02:45:54;;;;;;;;;22.75;22.00;;;;;8.76;74.33;102863.97;4983846;28;11421;-71
2022/03/24 02:48:23;;;;;;;;;25.25;25.25;;;;;8.78;74.11;102859.28;4973498;28;12005;-70
2022/03/24 02:50:50;;;;;;;;;29.75;28.75;;;;;8.71;74.22;102860.78;4953070;28;11235;-71
2022/03/24 02:53:16;;;;;;;;;27.25;24.75;;;;;8.78;74.43;102856.59;4998465;28;11350;-70
2022/03/24 02:55:44;;;;;;;;;29.75;28.25;;;;;8.76;74.66;102852.31;5004586;28;11162;-71
2022/03/24 02:58:10;;;;;;;;;36.25;34.25;;;;;8.74;74.50;102860.53;5003268;28;12430;-69
2022/03/24 03:00:38;;;;;;;;;30.00;30.00;;;;;8.67;74.46;102855.75;4998484;28;11698;-71
2022/03/24 03:03:04;;;;;;;;;23.50;22.75;;;;;8.69;74.24;102854.66;4999558;28;11655;-71
2022/03/24 03:05:31;;;;;;;;;27.25;25.75;;;;;8.67;73.88;102853.91;4993011;28;11539;-71
2022/03/24 03:07:58;;;;;;;;;33.75;28.00;;;;;8.61;74.33;102857.13;4987888;28;11371;-71
2022/03/24 03:10:24;;;;;;;;;36.75;28.25;;;;;8.56;74.44;102860.19;4990060;28;12318;-73
2022/03/24 03:12:50;;;;;;;;;32.50;28.75;;;;;8.54;74.97;102855.91;4974388;28;11605;-71
2022/03/24 03:15:17;;;;;;;;;33.75;29.25;;;;;8.51;74.57;102851.63;4982643;28;11555;-71
2022/03/24 03:17:43;;;;;;;;;28.25;25.75;;;;;8.52;75.03;102849.78;4983819;28;11715;-71
2022/03/24 03:20:13;;;;;;;;;29.75;28.00;;;;;8.49;74.78;102847.34;4997055;28;11350;-72
2022/03/24 03:22:40;;;;;;;;;24.00;20.00;;;;;8.47;74.89;102852.88;5012705;28;11564;-71
2022/03/24 03:25:08;;;;;;;;;32.25;27.00;;;;;8.41;74.70;102853.34;5005909;28;11865;-71
2022/03/24 03:27:34;;;;;;;;;25.00;19.50;;;;;8.42;74.92;102846.97;4998648;28;11616;-71
2022/03/24 03:30:01;;;;;;;;;25.50;21.50;;;;;8.33;75.03;102856.69;4980649;28;11364;-71
2022/03/24 03:32:27;;;;;;;;;29.75;24.00;;;;;8.35;75.26;102856.56;4992809;28;11292;-70
2022/03/24 03:34:54;;;;;;;;;27.00;23.00;;;;;8.31;75.57;102852.34;4988261;28;11180;-71
2022/03/24 03:37:20;;;;;;;;;22.25;18.50;;;;;8.29;75.08;102851.63;4987452;28;11093;-71
2022/03/24 03:39:47;;;;;;;;;27.00;24.25;;;;;8.24;75.56;102856.53;5004804;28;11053;-71
2022/03/24 03:42:13;;;;;;;;;33.25;28.75;;;;;8.27;74.90;102850.91;5005198;28;11093;-70
2022/03/24 03:44:40;;;;;;;;;32.75;28.50;;;;;8.29;74.91;102857.88;4975596;28;11561;-71
2022/03/24 03:47:07;;;;;;;;;29.75;22.75;;;;;8.22;75.46;102850.41;4974785;28;11724;-71
2022/03/24 03:49:35;;;;;;;;;28.75;28.75;;;;;8.22;75.67;102850.41;4983561;28;11182;-70
2022/03/24 03:52:21;;;;;;;;;24.25;24.25;;;;;8.15;75.62;102851.88;5002299;28;11680;-72
2022/03/24 03:54:48;;;;;;;;;34.00;29.25;;;;;8.13;75.65;102854.69;5000899;28;11263;-71
2022/03/24 03:57:14;;;;;;;;;30.00;26.50;;;;;8.11;75.74;102850.41;4998576;28;11729;-70
2022/03/24 03:59:41;;;;;;;;;30.50;26.25;;;;;8.06;75.70;102858.88;5004120;28;12286;-71
2022/03/24 04:02:07;;;;;;;;;26.25;24.00;;;;;8.02;76.09;102849.31;5005521;28;11364;-72
2022/03/24 04:04:34;;;;;;;;;32.25;31.00;;;;;8.06;75.87;102848.09;4991234;28;11330;-70
2022/03/24 04:07:01;;;;;;;;;33.00;28.50;;;;;8.05;75.44;102849.06;4987306;28;11565;-71
2022/03/24 04:09:27;;;;;;;;;30.00;23.25;;;;;7.99;75.68;102857.66;4992878;28;11564;-71
2022/03/24 04:11:54;;;;;;;;;37.00;27.50;;;;;7.98;75.84;102847.84;4991935;28;12352;-72
2022/03/24 04:14:21;;;;;;;;;26.00;24.75;;;;;7.98;76.21;102853.25;4992523;28;11546;-71
2022/03/24 04:16:47;;;;;;;;;36.00;29.00;;;;;8.00;75.72;102852.16;4989775;28;11212;-71
2022/03/24 04:19:14;;;;;;;;;34.50;29.75;;;;;8.00;75.82;102856.69;5003695;28;11662;-71
2022/03/24 04:21:41;;;;;;;;;34.25;27.50;;;;;8.01;76.59;102847.59;4987934;28;11657;-71
2022/03/24 04:24:08;;;;;;;;;31.00;27.75;;;;;8.02;75.84;102846.63;4982789;28;11587;-72
2022/03/24 04:26:34;;;;;;;;;26.25;23.00;;;;;7.98;75.96;102839.75;4973339;28;11574;-71
2022/03/24 04:29:01;;;;;;;;;32.75;27.50;;;;;7.96;75.87;102852.53;4993598;28;11193;-71
2022/03/24 04:31:27;;;;;;;;;31.00;27.50;;;;;7.90;75.90;102851.16;4990838;28;11785;-71
2022/03/24 04:33:54;;;;;;;;;36.00;26.00;;;;;7.89;76.24;102848.56;4991000;28;11330;-72
2022/03/24 04:36:21;;;;;;;;;30.25;26.25;;;;;7.85;75.82;102847.97;4987941;28;12083;-71
2022/03/24 04:38:47;;;;;;;;;39.75;35.50;;;;;7.87;76.06;102851.38;4984302;28;11561;-71
2022/03/24 04:41:14;;;;;;;;;26.75;26.25;;;;;7.77;76.51;102850.41;5009598;28;11578;-70
2022/03/24 04:43:40;;;;;;;;;40.25;34.00;;;;;7.81;76.56;102848.34;4993800;28;11619;-71
2022/03/24 04:46:08;;;;;;;;;44.25;36.00;;;;;7.77;76.82;102849.56;4973546;28;11577;-72
2022/03/24 04:48:37;;;;;;;;;32.75;29.25;;;;;7.77;77.16;102846.88;4983060;28;11676;-72
2022/03/24 04:51:06;;;;;;;;;39.50;37.75;;;;;7.80;77.22;102843.91;4997053;28;11697;-70
2022/03/24 04:53:33;;;;;;;;;33.75;25.00;;;;;7.78;76.76;102854.84;4974693;28;11679;-71
2022/03/24 04:55:59;;;;;;;;;34.50;30.50;;;;;7.78;77.06;102846.75;4990529;28;11709;-71
2022/03/24 04:58:26;;;;;;;;;35.75;28.75;;;;;7.77;77.53;102850.41;4999599;28;11555;-71
2022/03/24 05:00:52;;;;;;;;;44.00;34.50;;;;;7.69;77.08;102853.72;5010871;28;11565;-71
2022/03/24 05:03:20;;;;;;;;;28.50;24.00;;;;;7.68;77.29;102856.50;4996645;28;11561;-71
2022/03/24 05:05:47;;;;;;;;;38.50;35.00;;;;;7.59;77.50;102851.84;4990134;28;11299;-71
2022/03/24 05:08:13;;;;;;;;;43.25;35.00;;;;;7.64;77.29;102855.03;4974140;28;11682;-71
2022/03/24 05:10:40;;;;;;;;;34.75;26.00;;;;;7.65;77.40;102857.63;4975733;28;11701;-71
2022/03/24 05:13:06;;;;;;;;;24.75;24.00;;;;;7.58;77.26;102853.69;4990443;28;11607;-70
2022/03/24 05:15:33;;;;;;;;;38.75;36.00;;;;;7.56;77.27;102860.19;4991341;28;12428;-71
2022/03/24 05:17:59;;;;;;;;;32.50;29.25;;;;;7.49;77.32;102857.13;4980768;28;11661;-71
2022/03/24 05:20:30;;;;;;;;;36.00;32.00;;;;;7.45;77.93;102860.19;4991246;28;12338;-72
2022/03/24 05:22:57;;;;;;;;;34.75;29.25;;;;;7.47;77.71;102860.91;4992004;28;11596;-70
2022/03/24 05:25:25;;;;;;;;;27.75;25.75;;;;;7.46;77.57;102857.38;4994599;28;11555;-71
2022/03/24 05:27:57;;;;;;;;;34.25;31.25;;;;;7.50;77.33;102857.97;4975057;28;11629;-71
2022/03/24 05:30:23;;;;;;;;;36.00;31.00;;;;;7.50;77.84;102863.38;4954440;28;11661;-71
2022/03/24 05:32:50;;;;;;;;;37.50;35.25;;;;;7.51;77.98;102860.56;4980137;28;11598;-71
2022/03/24 05:35:17;;;;;;;;;35.00;29.50;;;;;7.44;78.47;102859.31;4996696;28;11652;-72
2022/03/24 05:37:44;;;;;;;;;35.75;29.25;;;;;7.50;78.22;102866.06;4993241;28;11664;-72
2022/03/24 05:40:12;;;;;;;;;36.00;33.75;;;;;7.45;77.87;102865.56;4971425;28;12430;-72
2022/03/24 05:42:38;;;;;;;;;40.25;28.50;;;;;7.35;78.20;102865.41;4972907;28;11589;-72
2022/03/24 05:45:05;;;;;;;;;30.25;27.00;;;;;7.45;78.41;102874.50;4978009;28;11695;-72
2022/03/24 05:47:31;;;;;;;;;44.25;35.50;;;;;7.35;78.02;102866.25;4984857;28;12343;-71
2022/03/24 05:49:58;;;;;;;;;32.25;30.00;;;;;7.43;78.79;102867.50;4986172;28;11581;-71
2022/03/24 05:52:38;;;;;;;;;34.50;27.25;;;;;7.44;78.59;102867.41;4994218;28;11565;-72
2022/03/24 05:55:05;;;;;;;;;38.00;34.25;;;;;7.47;78.58;102864.47;5005610;28;11540;-72
2022/03/24 05:57:32;;;;;;;;;31.75;30.50;;;;;7.52;78.29;102873.06;4993640;28;11590;-71
2022/03/24 05:59:58;;;;;;;;;36.25;32.00;;;;;7.59;77.88;102884.19;4958158;28;11567;-71
2022/03/24 06:02:25;;;;;;;;;26.50;25.75;;;;;7.56;78.28;102881.75;4980018;28;11581;-71
2022/03/24 06:04:53;;;;;;;;;41.25;35.25;;;;;7.78;78.63;102876.41;4992606;28;11554;-72
2022/03/24 06:07:20;;;;;;;;;34.50;32.50;;;;;8.17;77.46;102875.03;5003391;28;11560;-71
2022/03/24 06:09:48;;;;;;;;;43.00;31.25;;;;;8.29;77.07;102878.63;4993443;28;11580;-73
2022/03/24 06:12:15;;;;;;;;;38.50;35.50;;;;;8.27;76.17;102878.75;4992737;28;12311;-71
2022/03/24 06:14:41;;;;;;;;;28.50;26.00;;;;;8.28;76.38;102868.81;4989865;28;11599;-71
2022/03/24 06:17:09;;;;;;;;;28.50;24.00;;;;;8.25;76.28;102867.22;4992091;28;12432;-71
2022/03/24 06:19:37;;;;;;;;;27.50;25.50;;;;;8.38;76.69;102875.19;4994645;28;11554;-72
2022/03/24 06:22:04;;;;;;;;;39.25;29.50;;;;;8.52;76.28;102883.03;4997013;28;11563;-71
2022/03/24 06:24:31;;;;;;;;;27.25;25.00;;;;;8.63;75.98;102879.44;4962394;28;11583;-71
2022/03/24 06:26:58;;;;;;;;;38.25;33.75;;;;;8.71;75.46;102881.53;5007133;28;11562;-72
2022/03/24 06:29:25;;;;;;;;;27.50;27.25;;;;;8.83;75.43;102875.97;5010553;28;12303;-71
2022/03/24 06:31:51;;;;;;;;;43.75;40.50;;;;;9.07;74.97;102877.59;4980347;28;11650;-71
2022/03/24 06:34:18;;;;;;;;;28.25;26.50;;;;;9.21;74.18;102874.59;4993530;28;11589;-73
2022/03/24 06:36:44;;;;;;;;;36.50;33.50;;;;;9.29;73.70;102892.84;4979281;28;11568;-72
2022/03/24 06:39:11;;;;;;;;;34.00;29.25;;;;;9.51;73.51;102888.19;4976036;28;11562;-73
2022/03/24 06:41:37;;;;;;;;;33.50;33.50;;;;;9.65;73.28;102886.97;4979636;28;11725;-72
2022/03/24 06:44:06;;;;;;;;;41.75;34.25;;;;;9.98;72.88;102891.31;4985998;28;11548;-71
2022/03/24 06:46:33;;;;;;;;;34.75;29.75;;;;;10.29;71.74;102891.34;4990786;28;11647;-71
2022/03/24 06:49:03;;;;;;;;;38.00;31.50;;;;;10.32;71.50;102891.06;4984297;28;11274;-71
2022/03/24 06:51:30;;;;;;;;;37.25;34.00;;;;;10.41;71.85;102891.13;4950636;28;11539;-71
2022/03/24 06:53:56;;;;;;;;;50.50;37.50;;;;;10.63;71.44;102881.88;4980399;28;11745;-72
2022/03/24 06:56:23;;;;;;;;;42.50;35.75;;;;;10.97;70.40;102892.38;4990566;28;12350;-72
2022/03/24 06:58:51;;;;;;;;;33.50;25.25;;;;;11.05;69.88;102887.09;4977078;28;11321;-72
2022/03/24 07:01:18;;;;;;;;;48.25;35.25;;;;;11.09;70.50;102889.34;4977722;28;11739;-70
2022/03/24 07:03:45;;;;;;;;;47.50;39.25;;;;;11.04;71.60;102894.34;4986791;28;11673;-72
2022/03/24 07:06:12;;;;;;;;;43.75;38.50;;;;;11.20;71.58;102891.09;4984141;28;11653;-72
2022/03/24 07:08:40;;;;;;;;;39.00;37.25;;;;;11.36;71.47;102888.63;4989759;28;11588;-72
2022/03/24 07:11:07;;;;;;;;;41.50;34.25;;;;;11.44;71.78;102897.94;4986422;28;11275;-71
2022/03/24 07:13:34;;;;;;;;;45.75;42.00;;;;;11.53;72.21;102895.19;5009563;28;11194;-72
2022/03/24 07:16:04;;;;;;;;;54.25;46.00;;;;;11.61;72.28;102895.31;4991764;28;11660;-70
2022/03/24 07:18:31;;;;;;;;;57.25;46.25;;;;;11.76;72.11;102903.00;4993546;28;11572;-72
2022/03/24 07:20:57;;;;;;;;;58.50;45.25;;;;;11.68;72.34;102896.47;4991844;28;11686;-71
2022/03/24 07:23:24;;;;;;;;;62.75;52.00;;;;;11.83;72.66;102902.31;4992302;28;11562;-70
2022/03/24 07:25:51;;;;;;;;;60.75;48.25;;;;;12.03;71.96;102900.41;4986130;28;11769;-71
2022/03/24 07:28:17;;;;;;;;;61.00;50.25;;;;;12.15;71.64;102899.22;4973865;28;11582;-71
2022/03/24 07:30:50;;;;;;;;;72.00;54.00;;;;;12.14;71.18;102908.34;4956752;28;11727;-71
2022/03/24 07:33:18;;;;;;;;;66.75;50.75;;;;;12.35;70.80;102905.41;4973464;28;12318;-70
2022/03/24 07:35:46;;;;;;;;;70.25;52.25;;;;;12.47;70.99;102906.94;4980046;28;12334;-70
2022/03/24 07:38:13;;;;;;;;;48.00;43.50;;;;;12.68;69.12;102903.13;4975499;28;11707;-70
2022/03/24 07:40:48;;;;;;;;;63.25;48.75;;;;;12.66;69.58;102907.84;4984368;28;11389;-70
2022/03/24 07:43:14;;;;;;;;;67.50;50.50;;;;;12.85;69.13;102907.69;4972212;28;11611;-70
2022/03/24 07:45:40;;;;;;;;;65.00;50.75;;;;;12.95;68.52;102908.50;4979290;28;11593;-71
2022/03/24 07:48:17;;;;;;;;;60.50;49.50;;;;;13.14;66.91;102907.53;4993857;28;11660;-71
2022/03/24 07:50:46;;;;;;;;;69.75;54.75;;;;;12.95;67.17;102916.66;4968877;28;11597;-70
2022/03/24 07:53:13;;;;;;;;;64.50;51.50;;;;;13.06;66.11;102918.28;4955646;28;11661;-70
2022/03/24 07:55:41;;;;;;;;;67.75;54.50;;;;;13.16;66.39;102927.25;4978550;28;11674;-70
2022/03/24 07:58:09;;;;;;;;;69.50;55.25;;;;;12.98;66.55;102916.34;4991315;28;11578;-70
2022/03/24 08:00:36;;;;;;;;;64.75;52.50;;;;;13.24;64.96;102921.91;4987005;28;12279;-70
2022/03/24 08:03:06;;;;;;;;;69.50;53.75;;;;;13.22;65.61;102923.94;4972860;28;11703;-73
2022/03/24 08:05:32;;;;;;;;;66.50;51.00;;;;;13.32;65.51;102921.13;4981855;28;12439;-71
2022/03/24 08:07:59;;;;;;;;;69.25;55.00;;;;;13.46;65.00;102924.16;4991616;28;11697;-71
2022/03/24 08:10:25;;;;;;;;;65.50;54.25;;;;;13.41;64.52;102925.66;4977118;28;11753;-73
2022/03/24 08:12:52;;;;;;;;;65.00;52.00;;;;;13.53;63.57;102930.69;4973649;28;11561;-71
2022/03/24 08:15:18;;;;;;;;;65.50;53.00;;;;;13.98;63.21;102935.09;4959804;28;11594;-71
2022/03/24 08:17:44;;;;;;;;;72.50;53.00;;;;;14.02;62.96;102931.03;4992373;28;11689;-71
2022/03/24 08:20:11;;;;;;;;;67.75;54.00;;;;;14.25;61.38;102936.78;4990682;28;11590;-71
2022/03/24 08:22:38;;;;;;;;;61.00;50.25;;;;;14.63;61.75;102937.38;4973652;28;11595;-71
2022/03/24 08:25:08;;;;;;;;;68.00;54.75;;;;;14.62;61.33;102944.69;4975082;28;11587;-72
2022/03/24 08:27:37;;;;;;;;;67.50;51.00;;;;;14.95;59.59;102940.19;4993202;28;11631;-71
2022/03/24 08:30:06;;;;;;;;;58.75;47.50;;;;;14.92;57.42;102940.53;4990268;28;11660;-70
2022/03/24 08:32:33;;;;;;;;;72.75;57.25;;;;;14.54;59.44;102939.19;4973340;28;11271;-72
2022/03/24 08:35:00;;;;;;;;;58.75;47.50;;;;;14.81;57.65;102938.09;4956629;28;11643;-71
2022/03/24 08:37:26;;;;;;;;;71.75;55.50;;;;;14.78;57.14;102943.88;4992976;28;11374;-70
2022/03/24 08:39:52;;;;;;;;;64.25;53.00;;;;;15.06;56.39;102937.13;4993313;28;11735;-71
2022/03/24 08:42:20;;;;;;;;;67.00;50.25;;;;;15.13;54.34;102934.63;4974129;28;11260;-71
2022/03/24 08:44:46;;;;;;;;;65.75;50.75;;;;;15.09;55.62;102939.53;4956294;28;11389;-71
2022/03/24 08:47:13;;;;;;;;;68.75;54.50;;;;;15.29;54.74;102941.94;4991035;28;11368;-70
2022/03/24 08:49:39;;;;;;;;;69.25;53.50;;;;;15.28;55.41;102938.38;4958969;28;11340;-70
2022/03/24 08:52:06;;;;;;;;;64.25;50.75;;;;;15.66;54.38;102942.38;4974490;28;12329;-71
2022/03/24 08:54:33;;;;;;;;;69.00;54.00;;;;;15.86;52.62;102945.59;4972239;28;11307;-69
2022/03/24 08:57:00;;;;;;;;;72.75;54.00;;;;;15.76;52.52;102944.91;4988888;28;12290;-70
2022/03/24 08:59:26;;;;;;;;;64.50;47.50;;;;;16.09;49.82;102942.97;4990907;28;11696;-70
2022/03/24 09:01:53;;;;;;;;;65.50;50.75;;;;;16.10;49.78;102947.41;4975655;28;11300;-69
2022/03/24 09:04:23;;;;;;;;;60.75;50.25;;;;;16.51;49.96;102950.03;4954998;28;11164;-71
2022/03/24 09:06:50;;;;;;;;;68.50;52.75;;;;;16.73;49.36;102951.19;4987099;28;11030;-71
2022/03/24 09:09:16;;;;;;;;;58.75;48.75;;;;;16.88;49.06;102953.00;4974203;28;11196;-71
2022/03/24 09:11:43;;;;;;;;;60.75;49.25;;;;;16.99;47.96;102953.59;4976393;28;11580;-71
2022/03/24 09:14:09;;;;;;;;;56.75;46.75;;;;;17.23;46.25;102956.19;4972730;28;10885;-70
2022/03/24 09:16:36;;;;;;;;;62.00;52.50;;;;;16.88;45.25;102963.94;4986022;28;11029;-71
2022/03/24 09:19:02;;;;;;;;;59.50;46.25;;;;;17.30;46.92;102961.78;4991327;28;11255;-71
2022/03/24 09:21:29;;;;;;;;;51.75;44.25;;;;;17.40;46.25;102963.28;4978534;28;10877;-71
2022/03/24 09:23:55;;;;;;;;;57.75;47.75;;;;;17.61;44.17;102959.00;4972894;28;10700;-70
2022/03/24 09:26:22;;;;;;;;;50.50;42.00;;;;;17.74;43.71;102962.00;4984850;28;10970;-71
2022/03/24 09:28:58;;;;;;;;;58.00;44.75;;;;;17.56;42.93;102965.00;4992191;28;10561;-70
2022/03/24 09:31:25;;;;;;;;;54.50;45.25;;;;;17.79;42.74;102962.28;4990850;28;10824;-70
2022/03/24 09:33:51;;;;;;;;;60.75;45.50;;;;;17.73;40.64;102968.53;4989966;28;10589;-71
2022/03/24 09:36:18;;;;;;;;;48.25;41.50;;;;;18.06;39.10;102964.44;4979994;28;10977;-72
2022/03/24 09:38:44;;;;;;;;;44.75;40.50;;;;;18.34;36.61;102963.78;4970652;28;10473;-70
2022/03/24 09:41:12;;;;;;;;;47.25;38.75;;;;;18.27;37.33;102963.69;4955481;28;10329;-71
2022/03/24 09:43:41;;;;;;;;;52.75;41.75;;;;;18.13;38.14;102961.81;4972303;28;10322;-71
2022/03/24 09:46:09;;;;;;;;;55.25;44.25;;;;;18.22;38.00;102966.16;4981421;28;10352;-71
2022/03/24 09:48:35;;;;;;;;;55.00;43.75;;;;;18.35;37.28;102969.13;4992076;28;10419;-71
2022/03/24 09:51:02;;;;;;;;;57.25;44.25;;;;;18.15;35.56;102965.22;4982717;28;11129;-73
2022/03/24 09:53:28;;;;;;;;;46.00;38.00;;;;;18.43;33.99;102965.41;4972172;28;10496;-72
2022/03/24 09:55:55;;;;;;;;;43.50;37.75;;;;;18.47;34.40;102961.25;4979355;28;9989;-72
2022/03/24 09:58:26;;;;;;;;;45.75;39.00;;;;;18.28;32.21;102959.06;4990572;28;9953;-72
2022/03/24 10:00:52;;;;;;;;;41.50;37.00;;;;;18.00;31.31;102954.22;4990064;28;11332;-71
2022/03/24 10:03:21;;;;;;;;;44.75;39.50;;;;;18.18;31.06;102958.50;4991198;28;10334;-71
2022/03/24 10:06:07;;;;;;;;;45.00;38.50;;;;;18.41;31.81;102956.53;4983938;28;10077;-71
2022/03/24 10:08:35;;;;;;;;;40.75;35.75;;;;;18.56;31.16;102957.34;4954558;28;10144;-70
2022/03/24 10:11:03;;;;;;;;;50.75;39.75;;;;;18.39;29.38;102962.19;4962356;28;10066;-71
2022/03/24 10:13:53;;;;;;;;;49.00;39.25;;;;;18.40;31.79;102957.56;4973780;28;10266;-71
2022/03/24 10:16:35;;;;;;;;;46.00;39.00;;;;;18.33;30.81;102954.72;4978967;28;10761;-71
2022/03/24 10:19:10;;;;;;;;;44.50;36.50;;;;;18.68;31.05;102955.03;4971963;28;10172;-71
2022/03/24 10:21:40;;;;;;;;;49.50;41.25;;;;;18.25;33.91;102951.22;4985390;28;9802;-72
2022/03/24 10:24:21;;;;;;;;;49.00;41.00;;;;;18.42;35.24;102948.09;4975488;28;10299;-71
2022/03/24 10:26:49;;;;;;;;;57.25;45.75;;;;;18.75;34.54;102954.06;4992757;28;10187;-71
2022/03/24 10:29:21;;;;;;;;;47.50;42.00;;;;;18.70;36.34;102959.28;4992854;28;10384;-70
2022/03/24 10:31:56;;;;;;;;;53.75;40.75;;;;;18.72;37.12;102950.84;4960380;28;10079;-72
2022/03/24 10:34:37;;;;;;;;;56.75;43.50;;;;;18.74;38.02;102951.50;4954158;28;10350;-71
2022/03/24 10:37:07;;;;;;;;;51.50;41.75;;;;;19.22;38.13;102941.72;4971900;28;10427;-72
2022/03/24 10:39:35;;;;;;;;;59.50;47.25;;;;;18.47;39.08;102955.75;4972151;28;10146;-71
2022/03/24 10:42:17;;;;;;;;;56.50;43.75;;;;;19.05;38.07;102951.25;4991721;28;10441;-71
2022/03/24 10:45:04;;;;;;;;;48.25;41.25;;;;;18.99;38.07;102952.88;4995633;28;10304;-71
2022/03/24 10:47:55;;;;;;;;;57.75;46.25;;;;;18.84;40.12;102954.81;4994327;28;10221;-71
2022/03/24 10:50:29;;;;;;;;;58.00;46.00;;;;;18.85;38.42;102945.53;4989393;28;10466;-71
2022/03/24 10:53:04;;;;;;;;;57.00;45.00;;;;;18.52;36.75;102947.81;4974743;28;10157;-71
2022/03/24 10:55:39;;;;;;;;;47.50;39.00;;;;;18.85;39.21;102953.78;4973871;28;10411;-71
2022/03/24 10:58:38;;;;;;;;;50.25;40.75;;;;;18.91;37.71;102944.78;4975095;28;9717;-71
2022/03/24 11:01:14;;;;;;;;;44.25;39.00;;;;;19.38;38.20;102942.53;4928041;28;9854;-70
2022/03/24 11:03:43;;;;;;;;;43.25;37.00;;;;;19.59;38.08;102932.44;4976682;28;9731;-71
2022/03/24 11:06:14;;;;;;;;;52.25;42.25;;;;;18.98;38.55;102955.81;4992335;28;9949;-74
2022/03/24 11:08:43;;;;;;;;;54.75;43.00;;;;;19.13;37.91;102939.31;4993965;28;10049;-71
2022/03/24 11:11:13;;;;;;;;;53.00;42.00;;;;;19.35;38.47;102943.78;4982934;28;9998;-70
2022/03/24 11:13:52;;;;;;;;;44.00;37.75;;;;;19.37;38.67;102938.94;4973894;28;10039;-70
2022/03/24 11:16:22;;;;;;;;;53.75;44.25;;;;;18.81;39.54;102941.47;4984738;28;9655;-71
2022/03/24 11:18:50;;;;;;;;;48.75;41.00;;;;;19.02;39.03;102943.41;4975726;28;10234;-71